Terminal Aerodrome Forecast
Issued by NWS

Home | Current Version | Previous Version | Text Only | Print | Product List | Glossary On
Versions: 1 2 3 4 5 6 7 8 9 10 11 12 13 14 15
000
FTUS46 KMTR 030500
TAFSTS
TAF
KSTS 030520Z 0306/0406 19004KT 2SM BR OVC004
     FM030800 VRB03KT 1/2SM FG VV002
      TEMPO 0308/0312 1/2SM -RA FG
     FM031800 19009KT P6SM FEW012
     FM040300 VRB03KT P6SM OVC007=

USA.gov is the U.S. government's official web portal to all federal, state and local government web resources and services.